Time;durP1;ratioP1;P1;durP2;ratioP2;P2;SDS_P1;SDS_P2;PMS_P1;PMS_P2;Temp;Humidity;BMP_temperature;BMP_pressure;BME280_temperature;BME280_humidity;BME280_pressure;Samples;Min_cycle;Max_cycle;Signal;HPM_P1;HPM_P2
2022/04/10 00:01:12;;;;;;;8.07;2.80;;;;;;;3.44;87.26;101210.16;5011717;28;20285;-73
2022/04/10 00:03:37;;;;;;;7.33;2.13;;;;;;;3.41;87.23;101209.97;5029964;28;20703;-72
2022/04/10 00:06:03;;;;;;;8.33;2.23;;;;;;;3.40;87.51;101207.38;5011993;28;20214;-72
2022/04/10 00:08:28;;;;;;;11.27;2.83;;;;;;;3.39;87.39;101211.56;5012203;28;20193;-72
2022/04/10 00:10:53;;;;;;;10.23;2.63;;;;;;;3.38;87.39;101216.53;5029966;28;20663;-73
2022/04/10 00:13:19;;;;;;;9.23;2.50;;;;;;;3.40;87.71;101217.50;5029686;28;21015;-73
2022/04/10 00:15:44;;;;;;;12.80;2.63;;;;;;;3.40;87.34;101218.38;5025905;28;20664;-72
2022/04/10 00:18:09;;;;;;;9.67;2.27;;;;;;;3.41;87.65;101219.25;5024591;28;20229;-73
2022/04/10 00:20:36;;;;;;;10.13;2.30;;;;;;;3.36;87.26;101221.50;5020684;28;20222;-73
2022/04/10 00:23:01;;;;;;;9.90;2.90;;;;;;;3.36;88.37;101218.97;5029768;28;20218;-72
2022/04/10 00:25:26;;;;;;;7.87;2.40;;;;;;;3.33;87.81;101225.56;5029939;28;20218;-72
2022/04/10 00:27:51;;;;;;;9.33;2.10;;;;;;;3.30;87.26;101217.78;5029559;28;20183;-73
2022/04/10 00:30:17;;;;;;;11.90;2.80;;;;;;;3.30;87.97;101225.38;5011843;28;20209;-72
2022/04/10 00:32:43;;;;;;;9.87;2.37;;;;;;;3.38;88.62;101224.13;5011863;28;20190;-73
2022/04/10 00:35:11;;;;;;;13.10;2.57;;;;;;;3.39;87.97;101215.75;5011746;28;20289;-72
2022/04/10 00:37:38;;;;;;;8.53;2.60;;;;;;;3.39;87.50;101219.16;5029405;28;20739;-72
2022/04/10 00:40:06;;;;;;;11.20;2.47;;;;;;;3.34;87.51;101219.69;5029775;28;20213;-72
2022/04/10 00:42:32;;;;;;;11.27;2.70;;;;;;;3.32;87.16;101213.69;5030106;28;20281;-73
2022/04/10 00:44:57;;;;;;;6.13;2.70;;;;;;;3.30;87.56;101222.84;5011474;28;20313;-72
2022/04/10 00:47:22;;;;;;;6.93;1.90;;;;;;;3.26;87.53;101226.03;5029590;28;20281;-73
2022/04/10 00:49:48;;;;;;;8.40;2.50;;;;;;;3.25;88.07;101229.31;5011844;28;20187;-73
2022/04/10 00:52:14;;;;;;;9.00;2.30;;;;;;;3.21;87.96;101225.75;5049407;28;20240;-72
2022/04/10 00:54:40;;;;;;;11.07;2.50;;;;;;;3.21;88.04;101230.81;5049219;28;20296;-72
2022/04/10 00:57:05;;;;;;;10.20;2.17;;;;;;;3.20;88.14;101238.31;5029566;28;20280;-72
2022/04/10 00:59:31;;;;;;;9.33;2.83;;;;;;;3.22;88.33;101235.09;5031153;28;20659;-73
2022/04/10 01:01:56;;;;;;;11.40;3.20;;;;;;;3.26;88.22;101233.63;5031466;28;20198;-72
2022/04/10 01:04:22;;;;;;;9.97;2.43;;;;;;;3.30;87.90;101230.44;5049136;28;20213;-72
2022/04/10 01:06:48;;;;;;;10.70;2.60;;;;;;;3.27;88.55;101235.34;5030980;28;20228;-72
2022/04/10 01:09:15;;;;;;;10.87;2.83;;;;;;;3.22;88.31;101232.56;5031089;28;20609;-72
2022/04/10 01:11:41;;;;;;;13.10;2.63;;;;;;;3.20;88.28;101239.19;5017350;28;20187;-72
2022/04/10 01:14:08;;;;;;;8.33;2.53;;;;;;;3.18;89.00;101238.22;5011462;28;20233;-72
2022/04/10 01:16:36;;;;;;;11.73;2.70;;;;;;;3.15;89.37;101245.66;5011506;28;20189;-72
2022/04/10 01:19:03;;;;;;;9.50;2.20;;;;;;;3.12;89.51;101240.44;5011326;28;20174;-72
2022/04/10 01:21:32;;;;;;;12.40;2.80;;;;;;;3.12;89.52;101245.50;5011320;28;20269;-73
2022/04/10 01:24:01;;;;;;;10.73;2.60;;;;;;;3.15;89.30;101245.66;5015832;28;20217;-72
2022/04/10 01:26:28;;;;;;;7.17;2.20;;;;;;;3.19;88.83;101252.66;5048930;28;20213;-72
2022/04/10 01:28:59;;;;;;;7.67;2.70;;;;;;;3.28;89.52;101257.31;5030846;28;20185;-72
2022/04/10 01:31:29;;;;;;;11.67;2.83;;;;;;;3.30;89.17;101259.16;5032196;28;20201;-73
2022/04/10 01:33:59;;;;;;;9.30;2.60;;;;;;;3.32;89.54;101259.25;5034815;28;20259;-72
2022/04/10 01:36:26;;;;;;;10.13;2.73;;;;;;;3.26;89.43;101259.75;5034755;28;20614;-72
2022/04/10 01:38:57;;;;;;;12.03;3.17;;;;;;;3.22;89.39;101260.38;5046468;28;20236;-73
2022/04/10 01:41:25;;;;;;;13.77;4.10;;;;;;;3.20;90.08;101264.50;5015174;28;20191;-73
2022/04/10 01:43:53;;;;;;;9.13;3.03;;;;;;;3.19;89.59;101262.75;5015138;28;20244;-72
2022/04/10 01:46:20;;;;;;;13.20;4.40;;;;;;;3.20;90.55;101261.97;5032839;28;20218;-72
2022/04/10 01:48:45;;;;;;;13.20;3.87;;;;;;;3.18;90.13;101263.53;5014837;28;20734;-72
2022/04/10 01:51:11;;;;;;;10.40;3.20;;;;;;;3.15;90.82;101270.09;5014964;28;20274;-72
2022/04/10 01:53:37;;;;;;;10.33;3.43;;;;;;;3.15;90.79;101273.50;5015966;28;20276;-73
2022/04/10 01:56:04;;;;;;;9.50;3.23;;;;;;;3.17;91.20;101271.91;5014647;28;20178;-72
2022/04/10 01:58:30;;;;;;;10.57;3.10;;;;;;;3.13;90.90;101275.06;5014404;28;20607;-72
2022/04/10 02:00:56;;;;;;;10.13;3.07;;;;;;;3.16;90.81;101276.88;5014587;28;20666;-72
2022/04/10 02:03:21;;;;;;;6.57;2.50;;;;;;;3.20;91.23;101266.16;5014561;28;20198;-73
2022/04/10 02:05:47;;;;;;;7.60;2.27;;;;;;;3.22;91.22;101275.56;5033136;28;20226;-73
2022/04/10 02:08:14;;;;;;;8.63;2.10;;;;;;;3.25;90.56;101275.75;5014598;28;20182;-72
2022/04/10 02:10:40;;;;;;;8.27;2.40;;;;;;;3.26;90.54;101276.63;5014276;28;20178;-72
2022/04/10 02:13:07;;;;;;;8.50;2.40;;;;;;;3.29;91.03;101277.66;5014194;28;20216;-73
2022/04/10 02:15:36;;;;;;;6.47;1.77;;;;;;;3.28;89.73;101283.50;5014227;28;20187;-73
2022/04/10 02:18:01;;;;;;;7.13;1.53;;;;;;;3.29;90.60;101284.34;5014109;28;20194;-72
2022/04/10 02:20:26;;;;;;;5.73;2.00;;;;;;;3.25;90.15;101284.97;5015180;28;20244;-73
2022/04/10 02:22:53;;;;;;;7.23;1.60;;;;;;;3.25;90.17;101295.97;5031728;28;20187;-73
2022/04/10 02:25:18;;;;;;;3.73;1.50;;;;;;;3.24;90.19;101291.72;5013988;28;20218;-72
2022/04/10 02:27:44;;;;;;;4.23;1.73;;;;;;;3.23;89.85;101289.97;5013971;28;20198;-72
2022/04/10 02:30:10;;;;;;;5.20;1.87;;;;;;;3.18;90.05;101283.75;5031417;28;20244;-72
2022/04/10 02:32:36;;;;;;;4.87;1.50;;;;;;;3.09;89.54;101295.03;5010523;28;20843;-72
2022/04/10 02:35:01;;;;;;;4.00;1.63;;;;;;;3.05;89.84;101283.00;5010536;28;20215;-73
2022/04/10 02:37:26;;;;;;;5.40;2.30;;;;;;;3.04;90.00;101298.97;4997234;28;20190;-72
2022/04/10 02:39:52;;;;;;;5.93;1.70;;;;;;;3.07;90.23;101297.47;5013488;28;20186;-73
2022/04/10 02:42:17;;;;;;;8.67;2.03;;;;;;;3.04;90.11;101304.88;5013370;28;20187;-73
2022/04/10 02:44:42;;;;;;;6.47;1.97;;;;;;;3.09;90.34;101295.91;4998669;28;20209;-72
2022/04/10 02:47:08;;;;;;;6.90;2.30;;;;;;;3.08;90.80;101311.00;5014769;28;20221;-72
2022/04/10 02:49:33;;;;;;;4.90;2.50;;;;;;;3.10;91.55;101314.50;5013520;28;20190;-73
2022/04/10 02:51:59;;;;;;;9.73;3.10;;;;;;;3.08;91.52;101328.72;5013987;28;20190;-72
2022/04/10 02:54:24;;;;;;;8.50;2.97;;;;;;;3.09;91.65;101327.94;5013738;28;20210;-73
2022/04/10 02:56:49;;;;;;;7.43;2.67;;;;;;;2.94;92.09;101324.53;5014197;28;20190;-73
2022/04/10 02:59:15;;;;;;;8.90;2.73;;;;;;;2.83;91.33;101326.44;4997334;28;20224;-72
2022/04/10 03:01:40;;;;;;;6.67;2.37;;;;;;;2.72;91.81;101327.47;5019432;28;20189;-73
2022/04/10 03:04:06;;;;;;;9.63;2.67;;;;;;;2.69;91.95;101331.47;5051364;28;20208;-73
2022/04/10 03:06:31;;;;;;;7.07;1.93;;;;;;;2.66;92.74;101332.19;5033403;28;20214;-72
2022/04/10 03:08:57;;;;;;;6.87;2.53;;;;;;;2.68;92.40;101334.78;5033077;28;20217;-72
2022/04/10 03:11:25;;;;;;;8.97;3.10;;;;;;;2.67;92.68;101328.84;5033318;28;20192;-72
2022/04/10 03:13:51;;;;;;;8.27;3.20;;;;;;;2.69;93.08;101332.38;5050937;28;20225;-72
2022/04/10 03:16:16;;;;;;;8.73;3.63;;;;;;;2.71;92.96;101332.47;5049460;28;20716;-72
2022/04/10 03:18:42;;;;;;;9.70;3.00;;;;;;;2.73;92.92;101339.34;5032932;28;20189;-72
2022/04/10 03:21:08;;;;;;;9.97;3.07;;;;;;;2.66;93.10;101341.44;5032996;28;20651;-72
2022/04/10 03:23:34;;;;;;;6.43;2.67;;;;;;;2.64;93.22;101331.22;5032918;28;20244;-72
2022/04/10 03:25:59;;;;;;;7.97;2.83;;;;;;;2.66;93.35;101341.44;5033184;28;20743;-72
2022/04/10 03:28:25;;;;;;;9.60;3.00;;;;;;;2.66;93.58;101337.22;5033071;28;20293;-73
2022/04/10 03:30:50;;;;;;;10.03;3.30;;;;;;;2.67;93.99;101333.06;5017798;28;20192;-72
2022/04/10 03:33:16;;;;;;;8.00;3.00;;;;;;;2.66;94.48;101326.28;5013080;28;20301;-73
2022/04/10 03:35:42;;;;;;;8.33;3.33;;;;;;;2.72;93.81;101342.63;5013087;28;20190;-72
2022/04/10 03:38:09;;;;;;;8.50;2.97;;;;;;;2.73;93.67;101334.28;5012722;28;20186;-72
2022/04/10 03:40:35;;;;;;;7.23;3.07;;;;;;;2.72;94.16;101341.78;5012911;28;20652;-72
2022/04/10 03:43:00;;;;;;;6.43;2.70;;;;;;;2.74;94.70;101337.66;5013742;28;20976;-72
2022/04/10 03:45:26;;;;;;;6.87;2.50;;;;;;;2.76;93.73;101343.69;5012740;28;20257;-72
2022/04/10 03:47:52;;;;;;;10.23;2.80;;;;;;;2.72;94.18;101346.84;5012496;28;20209;-72
2022/04/10 03:50:17;;;;;;;7.17;2.47;;;;;;;2.72;93.78;101345.16;5012651;28;20280;-72
2022/04/10 03:52:43;;;;;;;7.97;2.40;;;;;;;2.73;94.65;101356.16;5013637;28;20187;-72
2022/04/10 03:55:09;;;;;;;6.10;2.10;;;;;;;2.66;93.45;101344.81;5011733;28;20688;-73
2022/04/10 03:57:34;;;;;;;4.37;2.00;;;;;;;2.62;93.92;101339.50;5012366;28;20186;-72
2022/04/10 04:00:01;;;;;;;6.77;2.03;;;;;;;2.62;93.59;101347.94;5012315;28;20191;-73
2022/04/10 04:02:29;;;;;;;7.50;2.10;;;;;;;2.60;93.74;101343.56;5030204;28;20221;-73
2022/04/10 04:04:54;;;;;;;9.00;2.33;;;;;;;2.55;94.36;101347.50;5013325;28;20264;-73
2022/04/10 04:07:21;;;;;;;5.33;2.10;;;;;;;2.49;93.80;101342.94;5028740;28;20194;-72
2022/04/10 04:09:46;;;;;;;7.07;2.37;;;;;;;2.49;93.66;101349.66;5012269;28;20178;-73
2022/04/10 04:12:12;;;;;;;6.93;2.50;;;;;;;2.41;94.80;101351.75;5029115;28;20186;-72
2022/04/10 04:14:39;;;;;;;8.97;2.63;;;;;;;2.34;94.71;101357.19;5028740;28;20213;-72
2022/04/10 04:17:05;;;;;;;4.33;2.10;;;;;;;2.32;94.69;101361.31;5012380;28;20190;-73
2022/04/10 04:19:30;;;;;;;8.90;2.37;;;;;;;2.26;94.74;101357.53;5033734;28;20193;-73
2022/04/10 04:21:55;;;;;;;7.07;2.93;;;;;;;2.22;94.47;101370.75;5029207;28;20178;-73
2022/04/10 04:24:21;;;;;;;6.77;2.67;;;;;;;2.20;94.69;101365.59;5012812;28;20584;-73
2022/04/10 04:26:47;;;;;;;6.77;2.83;;;;;;;2.17;95.47;101369.59;4995828;28;20214;-73
2022/04/10 04:29:14;;;;;;;8.77;3.00;;;;;;;2.19;95.26;101370.56;5011789;28;20743;-72
2022/04/10 04:31:39;;;;;;;10.90;3.13;;;;;;;2.17;94.41;101367.97;5046741;28;20265;-73
2022/04/10 04:34:07;;;;;;;7.00;3.00;;;;;;;2.21;95.25;101376.59;5031557;28;20248;-73
2022/04/10 04:36:33;;;;;;;10.37;3.70;;;;;;;2.23;95.66;101382.59;5029975;28;20303;-73
2022/04/10 04:38:58;;;;;;;13.83;3.70;;;;;;;2.25;95.78;101379.38;5031323;28;20209;-74
2022/04/10 04:41:24;;;;;;;9.43;3.70;;;;;;;2.29;96.07;101378.78;5031631;28;20239;-73
2022/04/10 04:43:51;;;;;;;15.17;4.13;;;;;;;2.33;95.68;101398.41;5031498;28;20232;-73
2022/04/10 04:46:17;;;;;;;16.93;4.30;;;;;;;2.39;96.60;101398.75;5031477;28;20656;-73
2022/04/10 04:48:43;;;;;;;14.00;3.73;;;;;;;2.43;96.09;101400.69;5029622;28;20269;-72
2022/04/10 04:51:16;;;;;;;8.73;3.90;;;;;;;2.48;96.51;101395.94;5031422;28;20654;-73
2022/04/10 04:53:42;;;;;;;7.27;3.70;;;;;;;2.51;95.81;101389.41;5031275;28;20202;-72
2022/04/10 04:56:08;;;;;;;17.30;4.37;;;;;;;2.53;95.44;101400.47;5029803;28;20174;-73
2022/04/10 04:58:37;;;;;;;11.17;4.33;;;;;;;2.56;95.96;101399.78;5031178;28;20678;-73
2022/04/10 05:01:03;;;;;;;12.90;3.77;;;;;;;2.58;95.42;101403.28;5031551;28;20186;-72
2022/04/10 05:03:29;;;;;;;16.67;4.17;;;;;;;2.58;95.31;101409.19;5015166;28;20255;-73
2022/04/10 05:05:55;;;;;;;13.00;3.60;;;;;;;2.63;95.62;101420.47;5033050;28;20221;-73
2022/04/10 05:08:26;;;;;;;13.10;3.30;;;;;;;2.72;95.43;101432.78;5033916;28;20230;-73
2022/04/10 05:10:53;;;;;;;11.90;3.97;;;;;;;2.75;94.83;101432.97;5019412;28;20208;-72
2022/04/10 05:13:19;;;;;;;12.43;3.80;;;;;;;2.76;95.42;101429.66;5035426;28;20582;-73
2022/04/10 05:15:44;;;;;;;12.03;3.00;;;;;;;2.81;94.90;101435.84;5035469;28;20192;-73
2022/04/10 05:18:13;;;;;;;15.77;3.97;;;;;;;2.84;94.76;101436.91;5034997;28;20186;-73
2022/04/10 05:20:41;;;;;;;14.53;4.07;;;;;;;2.85;94.94;101436.09;5035385;28;20189;-73
2022/04/10 05:23:17;;;;;;;11.30;3.43;;;;;;;2.97;94.32;101435.97;5026000;28;20218;-73
2022/04/10 05:25:45;;;;;;;9.80;3.57;;;;;;;3.10;93.61;101440.94;5018983;28;20221;-72
2022/04/10 05:28:11;;;;;;;10.10;2.70;;;;;;;3.18;93.25;101453.25;5008743;28;20208;-72
2022/04/10 05:30:37;;;;;;;11.10;3.50;;;;;;;3.26;92.92;101448.66;5011898;28;20253;-73
2022/04/10 05:33:06;;;;;;;13.77;3.60;;;;;;;3.27;92.80;101453.78;5015091;28;20609;-73
2022/04/10 05:35:32;;;;;;;8.07;2.70;;;;;;;3.16;92.80;101449.78;5031561;28;20241;-72
2022/04/10 05:37:58;;;;;;;10.90;2.70;;;;;;;3.19;93.44;101459.19;5014863;28;20210;-73
2022/04/10 05:40:24;;;;;;;9.73;3.17;;;;;;;3.13;93.46;101456.31;5020178;28;20277;-73
2022/04/10 05:42:50;;;;;;;6.90;2.90;;;;;;;3.05;92.92;101462.56;4995256;28;20198;-73
2022/04/10 05:45:18;;;;;;;6.63;2.53;;;;;;;3.01;92.88;101464.06;5008887;28;20260;-73
2022/04/10 05:47:49;;;;;;;11.27;3.50;;;;;;;3.05;93.33;101465.09;5014984;28;20186;-72
2022/04/10 05:50:16;;;;;;;11.37;3.03;;;;;;;3.13;92.98;101462.22;5014706;28;20914;-73
2022/04/10 05:52:44;;;;;;;10.90;3.43;;;;;;;3.38;92.74;101469.59;5014768;28;20197;-72
2022/04/10 05:55:12;;;;;;;10.73;3.50;;;;;;;3.59;91.95;101460.72;5014825;28;20170;-72
2022/04/10 05:57:37;;;;;;;10.77;3.23;;;;;;;3.76;91.12;101462.50;5013038;28;20190;-73
2022/04/10 06:00:05;;;;;;;11.00;3.20;;;;;;;3.87;91.23;101462.31;5007794;28;20579;-73
2022/04/10 06:02:42;;;;;;;13.37;3.87;;;;;;;4.00;90.51;101471.50;5013034;28;20234;-73
2022/04/10 06:05:09;;;;;;;9.53;2.80;;;;;;;4.01;90.86;101461.41;5014934;28;20341;-73
2022/04/10 06:07:41;;;;;;;11.10;3.30;;;;;;;4.06;90.27;101470.16;5030744;28;20194;-73
2022/04/10 06:10:06;;;;;;;10.63;3.37;;;;;;;4.09;90.32;101467.78;5030863;28;20194;-73
2022/04/10 06:12:32;;;;;;;11.00;3.57;;;;;;;4.31;89.65;101474.88;5014709;28;20201;-73
2022/04/10 06:14:58;;;;;;;10.87;2.90;;;;;;;4.37;89.21;101472.72;4998050;28;20222;-73
2022/04/10 06:17:24;;;;;;;13.17;3.43;;;;;;;4.49;88.29;101476.75;5010187;28;20187;-73
2022/04/10 06:19:49;;;;;;;9.53;2.77;;;;;;;4.37;88.05;101488.75;5014068;28;20186;-73
2022/04/10 06:22:16;;;;;;;11.10;3.23;;;;;;;4.23;88.03;101498.97;5014248;28;20186;-73
2022/04/10 06:24:41;;;;;;;14.13;3.23;;;;;;;4.16;89.19;101510.44;5014001;28;20226;-73
2022/04/10 06:27:07;;;;;;;15.30;3.40;;;;;;;4.13;88.72;101497.56;5014256;28;20194;-73
2022/04/10 06:29:34;;;;;;;10.23;3.67;;;;;;;4.06;88.57;101502.22;5014092;28;20187;-73
2022/04/10 06:32:02;;;;;;;12.00;3.27;;;;;;;4.07;88.84;101507.38;5013579;28;20202;-73
2022/04/10 06:34:32;;;;;;;10.53;2.77;;;;;;;4.02;88.54;101507.91;4998118;28;20297;-72
2022/04/10 06:36:59;;;;;;;14.40;3.37;;;;;;;4.24;88.41;101506.63;5014186;28;20194;-73
2022/04/10 06:39:24;;;;;;;10.10;3.63;;;;;;;4.52;87.35;101519.16;5014039;28;20186;-73
2022/04/10 06:41:53;;;;;;;11.60;3.10;;;;;;;4.76;86.61;101512.84;5014395;28;20190;-72
2022/04/10 06:44:43;;;;;;;11.63;3.20;;;;;;;4.93;85.33;101512.94;5030365;28;20206;-73
2022/04/10 06:47:17;;;;;;;10.60;2.80;;;;;;;5.27;84.57;101513.91;5011620;28;20271;-73
2022/04/10 06:49:43;;;;;;;12.67;3.80;;;;;;;5.53;83.48;101517.75;4993938;28;20191;-73
2022/04/10 06:52:08;;;;;;;9.90;3.47;;;;;;;5.87;82.29;101513.53;4995951;28;20187;-73
2022/04/10 06:54:37;;;;;;;10.20;2.90;;;;;;;5.79;82.17;101517.34;5024008;28;20214;-73
2022/04/10 06:57:03;;;;;;;13.03;3.53;;;;;;;5.53;82.76;101527.91;5013683;28;20208;-73
2022/04/10 06:59:29;;;;;;;12.10;3.93;;;;;;;5.41;83.22;101534.88;5013499;28;20201;-73
2022/04/10 07:01:55;;;;;;;9.97;2.93;;;;;;;5.37;84.05;101528.78;5013560;28;20185;-73
2022/04/10 07:04:21;;;;;;;14.07;3.13;;;;;;;5.33;84.47;101520.94;5012597;28;20594;-72
2022/04/10 07:06:47;;;;;;;12.17;3.07;;;;;;;5.35;84.53;101499.91;5012050;28;20213;-73
2022/04/10 07:09:14;;;;;;;13.87;3.60;;;;;;;5.42;83.19;101514.66;5008898;28;20581;-73
2022/04/10 07:11:40;;;;;;;11.20;2.83;;;;;;;5.54;84.49;101516.94;5031067;28;20214;-73
2022/04/10 07:14:13;;;;;;;18.73;3.17;;;;;;;5.32;83.11;101525.16;5013114;28;20725;-73
2022/04/10 07:16:39;;;;;;;12.93;2.97;;;;;;;5.09;84.39;101530.72;5013145;28;20193;-73
2022/04/10 07:19:06;;;;;;;8.87;2.83;;;;;;;4.99;84.84;101546.25;5012844;28;20186;-73
2022/04/10 07:24:16;;;;;;;6.27;2.00;;;;;;;5.21;84.15;101545.69;5012961;28;20214;-73
2022/04/10 07:26:49;;;;;;;9.43;2.77;;;;;;;5.59;82.46;101546.88;5012880;28;20699;-73
2022/04/10 07:29:17;;;;;;;8.73;2.57;;;;;;;6.10;81.87;101544.38;5012850;28;20225;-73
2022/04/10 07:31:44;;;;;;;7.47;2.53;;;;;;;6.36;80.62;101545.63;5012927;28;20217;-73
2022/04/10 07:34:09;;;;;;;7.83;2.60;;;;;;;6.58;79.40;101540.72;5012853;28;20248;-73
2022/04/10 07:36:58;;;;;;;9.33;2.67;;;;;;;6.69;78.42;101545.50;5012799;28;20565;-73
2022/04/10 07:39:29;;;;;;;7.90;2.33;;;;;;;6.80;78.06;101546.84;5011978;28;20194;-73
2022/04/10 07:42:05;;;;;;;11.07;2.33;;;;;;;7.07;77.62;101542.13;5012854;28;20214;-73
2022/04/10 07:44:30;;;;;;;10.90;2.80;;;;;;;7.20;77.29;101539.31;5012592;28;20291;-73
2022/04/10 07:49:40;;;;;;;8.37;2.30;;;;;;;7.51;75.62;101534.75;5008823;28;20186;-73
2022/04/10 07:52:08;;;;;;;6.60;2.40;;;;;;;7.53;75.21;101536.56;5009905;28;20191;-73
2022/04/10 07:54:57;;;;;;;6.63;1.87;;;;;;;7.96;73.48;101537.53;5012466;28;20210;-73
2022/04/10 07:57:24;;;;;;;4.33;1.70;;;;;;;8.24;72.65;101537.00;5012760;28;20599;-73
2022/04/10 07:59:50;;;;;;;5.60;1.77;;;;;;;7.45;73.54;101542.13;5011887;28;20236;-74
2022/04/10 08:02:27;;;;;;;7.20;1.70;;;;;;;8.12;72.34;101546.66;5030185;28;20193;-73
2022/04/10 08:04:52;;;;;;;5.87;1.73;;;;;;;8.08;71.76;101548.22;5011998;28;20695;-73
2022/04/10 08:07:34;;;;;;;8.07;1.60;;;;;;;7.98;71.25;101558.00;5011941;28;20193;-74
2022/04/10 08:09:59;;;;;;;9.23;2.13;;;;;;;7.93;72.10;101545.03;5029882;28;20615;-74
2022/04/10 08:12:25;;;;;;;11.97;2.90;;;;;;;8.17;72.66;101552.81;4996127;28;20649;-74
2022/04/10 08:14:50;;;;;;;7.73;2.77;;;;;;;8.22;72.28;101547.13;5028528;28;20849;-74
2022/04/10 08:17:16;;;;;;;8.10;2.47;;;;;;;8.64;69.69;101553.03;5014507;28;20195;-74
2022/04/10 08:19:41;;;;;;;6.10;2.33;;;;;;;8.77;70.63;101550.13;5028888;28;20194;-74
2022/04/10 08:22:06;;;;;;;11.90;3.20;;;;;;;8.93;70.08;101558.41;5029480;28;20639;-74
2022/04/10 08:24:32;;;;;;;12.43;2.80;;;;;;;9.51;67.48;101553.72;5011344;28;20597;-72
2022/04/10 08:26:59;;;;;;;14.20;3.17;;;;;;;9.10;67.52;101557.38;5029704;28;20174;-74
2022/04/10 08:29:25;;;;;;;8.10;2.63;;;;;;;8.39;70.29;101568.22;5026758;28;20205;-74
2022/04/10 08:31:50;;;;;;;10.53;2.63;;;;;;;8.05;70.94;101570.16;5017732;28;20186;-74
2022/04/10 08:34:15;;;;;;;8.10;2.63;;;;;;;8.05;69.94;101576.16;5011699;28;20210;-74
2022/04/10 08:36:41;;;;;;;7.57;2.63;;;;;;;7.69;71.24;101576.31;5008919;28;20668;-73
2022/04/10 08:39:06;;;;;;;9.63;2.43;;;;;;;7.04;73.42;101578.50;5000168;28;20566;-73
2022/04/10 08:41:37;;;;;;;6.73;2.13;;;;;;;6.78;75.73;101590.84;5009335;28;20636;-73
2022/04/10 08:44:04;;;;;;;6.80;2.37;;;;;;;6.41;77.28;101600.97;5009190;28;20225;-73
2022/04/10 08:46:31;;;;;;;4.73;2.00;;;;;;;6.17;79.71;101596.38;5028827;28;20218;-73
2022/04/10 08:48:58;;;;;;;5.30;2.00;;;;;;;6.10;79.99;101591.78;5029105;28;20193;-73
2022/04/10 08:51:25;;;;;;;6.17;1.90;;;;;;;6.59;79.23;101600.97;5029195;28;20198;-73
2022/04/10 08:53:52;;;;;;;5.17;2.00;;;;;;;7.65;77.43;101584.63;5029238;28;20222;-73
2022/04/10 08:56:18;;;;;;;11.47;2.43;;;;;;;8.17;74.85;101593.63;5029091;28;20182;-73
2022/04/10 08:58:43;;;;;;;4.80;2.27;;;;;;;8.30;71.67;101595.91;5028954;28;20674;-73
2022/04/10 09:01:12;;;;;;;4.47;1.30;;;;;;;8.15;72.20;101593.56;5011584;28;20188;-74
2022/04/10 09:03:38;;;;;;;8.03;1.83;;;;;;;8.88;70.51;101585.47;5010854;28;20214;-74
2022/04/10 09:06:09;;;;;;;5.13;1.67;;;;;;;9.15;68.90;101586.50;5029143;28;20252;-74
2022/04/10 09:08:34;;;;;;;5.07;1.57;;;;;;;9.08;66.94;101592.19;5028762;28;20796;-74
2022/04/10 09:11:03;;;;;;;4.90;1.30;;;;;;;9.42;66.52;101578.97;5029147;28;20178;-74
2022/04/10 09:13:47;;;;;;;4.53;1.50;;;;;;;9.57;64.70;101589.72;4997339;28;20669;-74
2022/04/10 09:16:23;;;;;;;4.67;1.40;;;;;;;9.32;66.10;101587.13;5029059;28;20225;-74
2022/04/10 09:19:06;;;;;;;6.40;1.70;;;;;;;9.97;63.05;101585.16;5028856;28;20532;-74
2022/04/10 09:21:33;;;;;;;5.97;1.73;;;;;;;10.03;60.74;101586.25;5028351;28;20226;-74
2022/04/10 09:24:02;;;;;;;6.07;1.93;;;;;;;10.10;60.61;101587.34;5029035;28;20213;-74
2022/04/10 09:26:41;;;;;;;7.10;1.80;;;;;;;10.44;59.43;101583.38;5011208;28;20974;-74
2022/04/10 09:29:06;;;;;;;6.73;1.80;;;;;;;10.51;57.69;101580.16;5010954;28;20274;-73
2022/04/10 09:31:34;;;;;;;4.80;1.47;;;;;;;10.46;58.02;101578.31;5024885;28;20266;-74
2022/04/10 09:34:01;;;;;;;6.73;1.90;;;;;;;10.60;57.52;101589.84;5018468;28;20202;-75
2022/04/10 09:36:41;;;;;;;8.40;1.53;;;;;;;11.05;57.59;101586.97;5009202;28;20652;-75
2022/04/10 09:39:32;;;;;;;6.57;1.70;;;;;;;10.72;55.51;101587.63;5026217;28;20213;-72
2022/04/10 09:42:05;;;;;;;5.77;1.80;;;;;;;10.84;56.02;101593.16;5011190;28;20554;-74
2022/04/10 09:44:38;;;;;;;7.27;1.83;;;;;;;11.11;55.28;101589.69;5028676;28;20221;-76
2022/04/10 09:47:08;;;;;;;9.67;2.00;;;;;;;11.20;55.60;101589.09;5028797;28;20198;-75
2022/04/10 09:49:36;;;;;;;8.93;2.23;;;;;;;10.97;54.89;101590.97;5028600;28;20190;-75
2022/04/10 09:52:11;;;;;;;7.40;2.10;;;;;;;11.20;55.16;101594.25;5011412;28;20691;-75
2022/04/10 09:54:42;;;;;;;5.40;2.20;;;;;;;11.15;54.81;101582.97;5013782;28;20260;-75
2022/04/10 09:57:12;;;;;;;6.20;2.00;;;;;;;11.15;55.31;101582.97;5032369;28;20189;-75
2022/04/10 09:59:40;;;;;;;8.50;1.60;;;;;;;11.38;52.77;101584.50;5014157;28;20193;-75
2022/04/10 10:02:07;;;;;;;9.03;1.97;;;;;;;11.73;52.75;101574.41;5032388;28;20182;-75
2022/04/10 10:04:37;;;;;;;5.50;1.80;;;;;;;11.11;53.69;101587.13;5014346;28;20236;-75
2022/04/10 10:07:09;;;;;;;9.80;2.03;;;;;;;10.94;54.45;101585.78;5032119;28;20274;-75
2022/04/10 10:09:35;;;;;;;8.60;1.63;;;;;;;10.78;54.83;101577.59;5031832;28;20240;-73
2022/04/10 10:12:02;;;;;;;6.43;1.87;;;;;;;10.45;54.45;101589.34;5013925;28;20775;-74
2022/04/10 10:14:30;;;;;;;9.53;1.93;;;;;;;11.39;53.37;101592.22;5032190;28;20675;-74
2022/04/10 10:16:58;;;;;;;4.13;1.80;;;;;;;10.89;52.47;101594.16;5031505;28;20190;-74
2022/04/10 10:19:24;;;;;;;7.07;1.80;;;;;;;11.27;51.33;101591.00;5023054;28;20265;-74
2022/04/10 10:21:50;;;;;;;9.13;2.03;;;;;;;11.41;51.85;101600.84;5012729;28;20273;-74
2022/04/10 10:24:17;;;;;;;4.77;1.43;;;;;;;11.67;51.23;101601.59;5005352;28;20780;-74
2022/04/10 10:26:50;;;;;;;7.23;1.73;;;;;;;11.49;49.67;101591.66;5014285;28;20587;-75
2022/04/10 10:29:34;;;;;;;5.53;2.00;;;;;;;11.31;51.00;101603.09;5013861;28;20203;-74
2022/04/10 10:32:32;;;;;;;7.33;1.80;;;;;;;11.33;51.89;101604.88;4995505;28;20236;-74
2022/04/10 10:34:57;;;;;;;6.33;1.80;;;;;;;11.18;49.53;101603.56;5031035;28;20211;-74
2022/04/10 10:37:28;;;;;;;5.37;1.50;;;;;;;11.42;50.61;101607.69;5031870;28;20186;-74
2022/04/10 10:39:53;;;;;;;8.70;1.70;;;;;;;11.67;50.08;101612.72;5013806;28;20205;-74
2022/04/10 10:42:21;;;;;;;8.27;1.80;;;;;;;11.93;50.98;101600.59;5031560;28;20218;-74
2022/04/10 10:44:49;;;;;;;4.03;1.60;;;;;;;11.92;48.90;101616.78;5031430;28;20202;-74
2022/04/10 10:47:23;;;;;;;5.40;1.50;;;;;;;11.74;49.87;101611.16;5013282;28;20202;-74
2022/04/10 10:49:52;;;;;;;6.43;1.67;;;;;;;11.50;50.14;101610.47;5019661;28;20182;-74
2022/04/10 10:52:18;;;;;;;8.60;1.90;;;;;;;11.93;50.21;101614.28;5027476;28;20843;-74
2022/04/10 10:54:51;;;;;;;6.50;2.00;;;;;;;12.51;50.38;101602.06;5010430;28;20207;-75
2022/04/10 10:57:41;;;;;;;7.77;1.77;;;;;;;12.23;49.60;101617.63;5013960;28;20260;-74
2022/04/10 11:00:08;;;;;;;6.77;1.80;;;;;;;12.43;50.22;101601.00;5031503;28;20190;-74
2022/04/10 11:02:35;;;;;;;7.27;1.90;;;;;;;12.47;48.82;101612.22;5031032;28;20663;-74
2022/04/10 11:05:05;;;;;;;6.20;1.53;;;;;;;12.20;49.79;101604.72;5031127;28;20568;-74
2022/04/10 11:07:30;;;;;;;6.53;1.57;;;;;;;12.68;48.08;101615.31;5031350;28;20190;-74
2022/04/10 11:09:58;;;;;;;6.90;1.87;;;;;;;12.20;48.35;101611.53;5013161;28;20202;-74
2022/04/10 11:12:33;;;;;;;5.40;1.60;;;;;;;12.53;47.71;101613.22;5026165;28;20199;-74
2022/04/10 11:15:03;;;;;;;6.07;1.73;;;;;;;12.78;47.27;101605.28;5011304;28;20694;-75
2022/04/10 11:17:30;;;;;;;5.83;1.70;;;;;;;13.19;46.17;101603.63;5021513;28;20190;-73
2022/04/10 11:19:59;;;;;;;4.17;1.90;;;;;;;13.01;46.14;101616.09;5009453;28;20261;-72
2022/04/10 11:22:30;;;;;;;6.87;1.93;;;;;;;11.87;47.80;101626.06;5026462;28;20186;-74
2022/04/10 11:25:00;;;;;;;8.00;1.67;;;;;;;10.59;56.16;101644.41;5030527;28;20276;-74
2022/04/10 11:27:49;;;;;;;3.20;1.40;;;;;;;9.43;61.74;101660.81;5030818;28;20270;-72
2022/04/10 11:30:23;;;;;;;4.57;1.50;;;;;;;8.82;65.04;101686.50;5030768;28;20174;-74
2022/04/10 11:32:53;;;;;;;1.93;0.90;;;;;;;8.56;65.44;101677.81;5030142;28;20187;-73
2022/04/10 11:35:25;;;;;;;3.33;1.30;;;;;;;8.81;65.15;101677.97;5022295;28;20193;-72
2022/04/10 11:37:56;;;;;;;2.93;1.00;;;;;;;10.41;61.31;101659.22;5011608;28;20190;-72